createdAt,value
2022-08-31T00:00:57.699Z,15.90
2022-08-31T00:03:43.789Z,15.80
2022-08-31T00:06:11.754Z,15.90
2022-08-31T00:08:39.632Z,15.90
2022-08-31T00:11:10.506Z,15.80
2022-08-31T00:13:38.423Z,15.80
2022-08-31T00:16:08.427Z,15.80
2022-08-31T00:18:36.576Z,15.80
2022-08-31T00:21:05.279Z,15.80
2022-08-31T00:23:33.140Z,15.70
2022-08-31T00:26:01.064Z,15.70
2022-08-31T00:28:28.972Z,15.70
2022-08-31T00:30:56.943Z,15.60
2022-08-31T00:33:26.125Z,15.50
2022-08-31T00:35:54.786Z,15.50
2022-08-31T00:38:22.792Z,15.40
2022-08-31T00:40:52.349Z,15.30
2022-08-31T00:43:40.150Z,15.30
2022-08-31T00:46:09.788Z,15.20
2022-08-31T00:48:43.123Z,15.20
2022-08-31T00:51:11.453Z,15.10
2022-08-31T00:53:45.099Z,15.10
2022-08-31T00:56:12.979Z,15.00
2022-08-31T00:58:40.952Z,15.00
2022-08-31T01:01:11.130Z,14.90
2022-08-31T01:03:40.470Z,14.90
2022-08-31T01:06:08.890Z,14.80
2022-08-31T01:08:37.196Z,14.80
2022-08-31T01:11:05.480Z,14.70
2022-08-31T01:13:33.324Z,14.70
2022-08-31T01:16:06.209Z,14.60
2022-08-31T01:18:35.610Z,14.60
2022-08-31T01:21:17.348Z,14.50
2022-08-31T01:23:47.026Z,14.50
2022-08-31T01:26:18.480Z,14.40
2022-08-31T01:28:48.232Z,14.40
2022-08-31T01:31:21.095Z,14.30
2022-08-31T01:33:49.224Z,14.20
2022-08-31T01:36:17.982Z,14.20
2022-08-31T01:38:52.993Z,14.20
2022-08-31T01:41:22.808Z,14.20
2022-08-31T01:43:52.907Z,14.20
2022-08-31T01:46:21.535Z,14.10
2022-08-31T01:48:49.689Z,14.00
2022-08-31T01:51:20.091Z,14.00
2022-08-31T01:53:51.357Z,13.90
2022-08-31T01:56:22.285Z,13.90
2022-08-31T01:58:50.415Z,13.80
2022-08-31T02:01:37.561Z,13.80
2022-08-31T02:04:08.666Z,13.70
2022-08-31T02:06:37.635Z,13.70
2022-08-31T02:09:07.782Z,13.70
2022-08-31T02:11:37.503Z,13.70
2022-08-31T02:14:06.221Z,13.60
2022-08-31T02:16:34.354Z,13.60
2022-08-31T02:19:02.263Z,13.50
2022-08-31T02:21:30.249Z,13.50
2022-08-31T02:23:58.975Z,13.40
2022-08-31T02:26:28.401Z,13.40
2022-08-31T02:28:56.189Z,13.40
2022-08-31T02:31:24.086Z,13.40
2022-08-31T02:33:57.724Z,13.30
2022-08-31T02:36:25.615Z,13.30
2022-08-31T02:38:54.409Z,13.30
2022-08-31T02:41:22.319Z,13.30
2022-08-31T02:43:51.473Z,13.30
2022-08-31T02:46:19.759Z,13.30
2022-08-31T02:48:57.269Z,13.30
2022-08-31T02:51:25.116Z,13.30
2022-08-31T02:53:52.947Z,13.20
2022-08-31T02:56:20.844Z,13.20
2022-08-31T02:58:54.499Z,13.10
2022-08-31T03:01:26.383Z,13.10
2022-08-31T03:03:54.954Z,13.10
2022-08-31T03:06:24.163Z,13.10
2022-08-31T03:08:51.997Z,13.10
2022-08-31T03:11:20.571Z,13.20
2022-08-31T03:13:48.590Z,13.10
2022-08-31T03:16:16.804Z,13.10
2022-08-31T03:18:46.834Z,13.00
2022-08-31T03:21:14.622Z,13.00
2022-08-31T03:23:42.764Z,12.90
2022-08-31T03:26:10.696Z,12.80
2022-08-31T03:28:39.598Z,12.80
2022-08-31T03:31:28.547Z,12.80
2022-08-31T03:33:59.089Z,12.80
2022-08-31T03:36:27.219Z,12.80
2022-08-31T03:38:55.131Z,12.80
2022-08-31T03:41:25.791Z,12.80
2022-08-31T03:43:54.482Z,12.80
2022-08-31T03:46:23.413Z,12.70
2022-08-31T03:48:51.907Z,12.80
2022-08-31T03:51:21.434Z,12.80
2022-08-31T03:53:49.563Z,12.80
2022-08-31T03:56:20.115Z,12.90
2022-08-31T03:58:51.049Z,12.90
2022-08-31T04:01:37.965Z,12.90
2022-08-31T04:04:25.960Z,12.80
2022-08-31T04:07:18.201Z,12.80
2022-08-31T04:10:05.439Z,12.80
2022-08-31T04:12:53.238Z,12.80
2022-08-31T04:15:39.270Z,12.80
2022-08-31T04:18:25.858Z,12.70
2022-08-31T04:20:53.715Z,12.70
2022-08-31T04:23:24.290Z,12.60
2022-08-31T04:25:53.687Z,12.70
2022-08-31T04:28:21.556Z,12.90
2022-08-31T04:30:49.356Z,12.80
2022-08-31T04:33:18.121Z,13.00
2022-08-31T04:35:46.115Z,13.10
2022-08-31T04:38:14.460Z,13.20
2022-08-31T04:40:44.917Z,13.30
2022-08-31T04:43:12.856Z,13.30
2022-08-31T04:45:45.976Z,13.40
2022-08-31T04:48:14.306Z,13.40
2022-08-31T04:50:43.382Z,13.40
2022-08-31T04:53:11.806Z,13.60
2022-08-31T04:55:40.954Z,13.70
2022-08-31T04:58:12.891Z,13.80
2022-08-31T05:00:43.200Z,13.80
2022-08-31T05:03:23.011Z,13.80
2022-08-31T05:05:53.813Z,13.90
2022-08-31T05:08:22.548Z,13.90
2022-08-31T05:10:50.772Z,14.00
2022-08-31T05:13:20.046Z,14.20
2022-08-31T05:15:48.074Z,14.00
2022-08-31T05:18:21.006Z,14.20
2022-08-31T05:20:55.312Z,14.30
2022-08-31T05:23:23.163Z,14.30
2022-08-31T05:25:51.101Z,14.10
2022-08-31T05:28:23.405Z,14.30
2022-08-31T05:30:51.360Z,14.40
2022-08-31T05:33:31.426Z,14.30
2022-08-31T05:40:59.565Z,14.90
2022-08-31T05:43:29.693Z,15.20
2022-08-31T05:45:58.076Z,15.30
2022-08-31T05:48:30.006Z,15.40
2022-08-31T05:51:02.268Z,15.60
2022-08-31T05:53:30.335Z,15.90
2022-08-31T05:56:02.889Z,16.00
2022-08-31T05:58:32.388Z,16.30
2022-08-31T06:01:01.366Z,16.60
2022-08-31T06:04:01.769Z,16.60
2022-08-31T06:06:29.978Z,16.70
2022-08-31T06:08:58.563Z,16.90
2022-08-31T06:11:30.240Z,17.00
2022-08-31T06:14:01.131Z,17.00
2022-08-31T06:16:30.613Z,17.00
2022-08-31T06:18:59.114Z,17.00
2022-08-31T06:21:30.850Z,17.10
2022-08-31T06:23:59.624Z,17.20
2022-08-31T06:26:30.872Z,17.30
2022-08-31T06:29:02.423Z,17.40
2022-08-31T06:31:33.888Z,17.40
2022-08-31T06:34:03.354Z,17.40
2022-08-31T06:37:18.601Z,17.50
2022-08-31T06:39:47.650Z,17.60
2022-08-31T06:42:17.779Z,17.80
2022-08-31T06:45:14.935Z,18.00
2022-08-31T06:47:49.497Z,18.10
2022-08-31T06:50:19.562Z,18.10
2022-08-31T06:52:50.114Z,18.20
2022-08-31T06:55:21.553Z,18.30
2022-08-31T06:58:18.554Z,18.40
2022-08-31T07:00:58.683Z,18.50
2022-08-31T07:03:41.349Z,18.60
2022-08-31T07:06:11.256Z,18.80
2022-08-31T07:08:40.742Z,18.90
2022-08-31T07:11:14.078Z,19.00
2022-08-31T07:13:42.158Z,19.10
2022-08-31T07:16:13.648Z,19.30
2022-08-31T07:18:43.400Z,19.40
2022-08-31T07:21:14.633Z,19.40
2022-08-31T07:23:43.190Z,19.40
2022-08-31T07:26:16.540Z,19.50
2022-08-31T07:28:45.041Z,19.70
2022-08-31T07:31:17.532Z,19.90
2022-08-31T07:33:45.530Z,19.90
2022-08-31T07:36:15.687Z,20.00
2022-08-31T07:39:21.778Z,20.10
2022-08-31T07:42:07.506Z,20.30
2022-08-31T07:44:35.443Z,20.40
2022-08-31T07:47:11.939Z,20.50
2022-08-31T07:52:30.572Z,20.90
2022-08-31T07:55:11.889Z,20.80
2022-08-31T07:57:53.391Z,20.80
2022-08-31T08:00:23.281Z,20.90
2022-08-31T08:02:53.967Z,21.00
2022-08-31T08:05:28.944Z,21.10
2022-08-31T08:08:22.815Z,21.50
2022-08-31T08:11:02.114Z,21.30
2022-08-31T08:13:44.305Z,21.30
2022-08-31T08:16:20.944Z,21.40
2022-08-31T08:19:19.555Z,21.50
2022-08-31T08:21:51.076Z,21.60
2022-08-31T08:24:24.260Z,21.70
2022-08-31T08:27:16.533Z,21.80
2022-08-31T08:30:00.738Z,21.80
2022-08-31T08:32:31.401Z,21.80
2022-08-31T08:35:01.015Z,21.70
2022-08-31T08:37:54.196Z,21.70
2022-08-31T08:40:31.167Z,21.70
2022-08-31T08:43:02.366Z,21.70
2022-08-31T08:45:30.854Z,21.80
2022-08-31T08:47:59.639Z,21.90
2022-08-31T08:50:29.885Z,22.00
2022-08-31T08:53:01.798Z,22.10
2022-08-31T08:55:36.832Z,22.20
2022-08-31T08:58:07.882Z,22.40
2022-08-31T09:06:11.891Z,22.70
2022-08-31T09:09:09.017Z,22.80
2022-08-31T09:11:55.430Z,22.80
2022-08-31T09:14:39.381Z,22.80
2022-08-31T09:17:16.893Z,22.90
2022-08-31T09:20:00.282Z,23.00
2022-08-31T09:25:00.531Z,23.00
2022-08-31T09:28:02.631Z,23.00
2022-08-31T09:30:40.937Z,23.00
2022-08-31T09:33:17.687Z,23.10
2022-08-31T09:35:46.006Z,23.00
2022-08-31T09:38:29.007Z,23.10
2022-08-31T09:40:57.152Z,23.10
2022-08-31T09:43:35.104Z,23.10
2022-08-31T09:46:07.619Z,23.20
2022-08-31T09:48:51.310Z,23.30
2022-08-31T09:51:28.064Z,23.40
2022-08-31T09:54:22.279Z,23.50
2022-08-31T09:56:55.300Z,23.50
2022-08-31T09:59:37.301Z,23.50
2022-08-31T10:02:11.147Z,23.40
2022-08-31T10:04:51.003Z,23.50
2022-08-31T10:07:37.899Z,23.50
2022-08-31T10:10:20.476Z,23.60
2022-08-31T10:13:03.550Z,23.60
2022-08-31T10:15:35.817Z,23.60
2022-08-31T10:18:11.841Z,23.60
2022-08-31T10:20:46.331Z,23.60
2022-08-31T10:23:20.723Z,23.50
2022-08-31T10:25:57.452Z,23.40
2022-08-31T10:28:32.435Z,23.30
2022-08-31T10:31:04.225Z,23.30
2022-08-31T10:33:51.877Z,23.20
2022-08-31T10:36:20.545Z,23.00
2022-08-31T10:38:50.514Z,23.00
2022-08-31T10:41:25.643Z,22.90
2022-08-31T10:44:02.517Z,22.80
2022-08-31T10:46:35.385Z,22.70
2022-08-31T10:49:05.241Z,22.60
2022-08-31T10:51:41.578Z,22.50
2022-08-31T10:54:28.642Z,22.40
2022-08-31T10:57:06.385Z,22.40
2022-08-31T10:59:44.611Z,22.30
2022-08-31T11:02:36.658Z,22.30
2022-08-31T11:05:18.725Z,22.30
2022-08-31T11:07:57.394Z,22.30
2022-08-31T11:10:36.442Z,22.30
2022-08-31T11:13:17.347Z,22.30
2022-08-31T11:16:06.630Z,22.30
2022-08-31T11:18:55.482Z,22.30
2022-08-31T11:21:39.627Z,22.30
2022-08-31T11:24:34.982Z,22.30
2022-08-31T11:27:11.783Z,22.30
2022-08-31T11:29:46.258Z,22.20
2022-08-31T11:32:21.850Z,22.20
2022-08-31T11:34:53.482Z,22.20
2022-08-31T11:37:54.169Z,22.10
2022-08-31T11:40:58.285Z,22.10
2022-08-31T11:43:53.735Z,22.20
2022-08-31T11:47:14.442Z,22.20
2022-08-31T11:49:49.952Z,22.20
2022-08-31T11:52:43.263Z,22.10
2022-08-31T11:55:27.176Z,22.10
2022-08-31T11:58:26.937Z,22.00
2022-08-31T12:00:59.147Z,22.00
2022-08-31T12:03:51.568Z,21.90
2022-08-31T12:07:08.512Z,21.90
2022-08-31T12:10:04.281Z,21.80
2022-08-31T12:12:48.278Z,21.80
2022-08-31T12:15:22.111Z,21.70
2022-08-31T12:18:04.208Z,21.80
2022-08-31T12:21:01.757Z,21.90
2022-08-31T12:23:39.333Z,22.10
2022-08-31T12:26:21.643Z,22.20
2022-08-31T12:29:10.786Z,22.40
2022-08-31T12:31:40.911Z,22.60
2022-08-31T12:34:13.549Z,22.70
2022-08-31T12:36:41.667Z,22.80
2022-08-31T12:39:12.375Z,23.00
2022-08-31T12:41:47.905Z,23.00
2022-08-31T12:44:21.793Z,23.10
2022-08-31T12:47:02.053Z,23.30
2022-08-31T12:49:55.195Z,23.50
2022-08-31T12:52:39.797Z,23.60
2022-08-31T12:55:23.385Z,23.80
2022-08-31T12:58:18.445Z,24.00
2022-08-31T13:00:46.999Z,24.10
2022-08-31T13:03:22.313Z,24.10
2022-08-31T13:06:08.351Z,24.20
2022-08-31T13:08:39.769Z,24.30
2022-08-31T13:11:16.064Z,24.30
2022-08-31T13:13:53.049Z,24.40
2022-08-31T13:16:21.542Z,24.40
2022-08-31T13:18:51.419Z,24.40
2022-08-31T13:21:22.853Z,24.20
2022-08-31T13:23:50.632Z,24.10
2022-08-31T13:26:22.935Z,23.90
2022-08-31T13:28:54.254Z,23.90
2022-08-31T13:31:25.941Z,24.00
2022-08-31T13:33:56.803Z,24.10
2022-08-31T13:36:32.733Z,24.20
2022-08-31T13:39:03.567Z,24.20
2022-08-31T13:41:37.935Z,24.10
2022-08-31T13:44:10.156Z,23.90
2022-08-31T13:46:44.565Z,23.90
2022-08-31T13:49:30.848Z,23.80
2022-08-31T13:51:59.274Z,23.60
2022-08-31T13:54:29.153Z,23.40
2022-08-31T13:56:58.720Z,23.40
2022-08-31T13:59:31.652Z,23.40
2022-08-31T14:02:02.094Z,23.30
2022-08-31T14:04:43.272Z,23.20
2022-08-31T14:07:21.376Z,23.10
2022-08-31T14:09:51.942Z,23.00
2022-08-31T14:12:34.559Z,22.90
2022-08-31T14:15:09.236Z,22.80
2022-08-31T14:17:42.277Z,22.70
2022-08-31T14:20:36.311Z,22.60
2022-08-31T14:23:30.706Z,22.50
2022-08-31T14:26:01.039Z,22.40
2022-08-31T14:28:41.976Z,22.40
2022-08-31T14:31:22.252Z,22.30
2022-08-31T14:33:55.905Z,22.20
2022-08-31T14:36:26.042Z,22.10
2022-08-31T14:38:54.127Z,22.00
2022-08-31T14:41:30.130Z,22.00
2022-08-31T14:43:58.718Z,21.90
2022-08-31T14:46:28.251Z,21.80
2022-08-31T14:48:57.781Z,21.70
2022-08-31T14:51:27.209Z,21.70
2022-08-31T14:53:56.981Z,21.70
2022-08-31T14:56:30.386Z,21.60
2022-08-31T14:58:59.635Z,21.50
2022-08-31T15:01:35.494Z,21.50
2022-08-31T15:04:04.793Z,21.50
2022-08-31T15:06:33.240Z,21.50
2022-08-31T15:09:05.214Z,21.50
2022-08-31T15:11:36.072Z,21.40
2022-08-31T15:14:12.137Z,21.40
2022-08-31T15:16:43.454Z,21.50
2022-08-31T15:19:13.526Z,21.30
2022-08-31T15:21:52.294Z,21.30
2022-08-31T15:24:21.879Z,21.20
2022-08-31T15:26:49.808Z,21.20
2022-08-31T15:29:17.805Z,21.10
2022-08-31T15:31:52.720Z,21.20
2022-08-31T15:34:24.507Z,21.10
2022-08-31T15:36:56.062Z,21.10
2022-08-31T15:39:24.857Z,21.00
2022-08-31T15:41:52.855Z,21.00
2022-08-31T15:44:21.213Z,21.00
2022-08-31T15:49:37.657Z,20.80
2022-08-31T15:52:08.091Z,20.80
2022-08-31T15:54:37.522Z,21.00
2022-08-31T15:57:07.714Z,20.90
2022-08-31T15:59:35.972Z,20.90
2022-08-31T16:02:06.811Z,20.80
2022-08-31T16:04:38.501Z,20.80
2022-08-31T16:07:07.231Z,20.80
2022-08-31T16:09:35.559Z,20.70
2022-08-31T16:12:03.995Z,20.70
2022-08-31T16:14:31.838Z,20.40
2022-08-31T16:17:00.262Z,20.50
2022-08-31T16:19:35.411Z,20.50
2022-08-31T16:22:05.695Z,20.40
2022-08-31T16:24:37.364Z,20.30
2022-08-31T16:27:08.077Z,20.30
2022-08-31T16:29:37.264Z,20.30
2022-08-31T16:32:06.815Z,20.30
2022-08-31T16:34:37.159Z,20.30
2022-08-31T16:37:07.273Z,20.20
2022-08-31T16:39:36.157Z,20.20
2022-08-31T16:42:04.880Z,20.10
2022-08-31T16:44:36.863Z,20.10
2022-08-31T16:49:36.301Z,20.00
2022-08-31T16:59:31.150Z,19.80
2022-08-31T17:01:59.202Z,19.80
2022-08-31T17:04:51.153Z,19.70
2022-08-31T17:07:18.353Z,19.70
2022-08-31T17:09:46.820Z,19.70
2022-08-31T17:12:17.248Z,19.70
2022-08-31T17:14:52.151Z,19.70
2022-08-31T17:17:22.353Z,19.70
2022-08-31T17:19:52.092Z,19.60
2022-08-31T17:22:29.909Z,19.60
2022-08-31T17:25:04.844Z,19.70
2022-08-31T17:27:34.547Z,19.60
2022-08-31T17:30:06.036Z,19.50
2022-08-31T17:32:36.531Z,19.60
2022-08-31T17:35:08.929Z,19.50
2022-08-31T17:37:38.461Z,19.50
2022-08-31T17:40:09.002Z,19.50
2022-08-31T17:42:37.314Z,19.40
2022-08-31T17:45:06.625Z,19.50
2022-08-31T17:47:35.924Z,19.50
2022-08-31T17:50:04.413Z,19.40
2022-08-31T17:55:01.924Z,19.20
2022-08-31T17:57:30.242Z,19.30
2022-08-31T17:59:58.104Z,19.20
2022-08-31T18:02:32.275Z,19.30
2022-08-31T18:05:00.587Z,19.10
2022-08-31T18:07:29.562Z,19.10
2022-08-31T18:09:58.260Z,19.00
2022-08-31T18:17:26.519Z,19.00
2022-08-31T18:19:54.698Z,19.00
2022-08-31T18:22:22.539Z,18.80
2022-08-31T18:24:50.585Z,18.70
2022-08-31T18:27:18.485Z,18.70
2022-08-31T18:29:47.636Z,18.60
2022-08-31T18:32:15.581Z,18.40
2022-08-31T18:34:46.191Z,18.40
2022-08-31T18:37:16.198Z,18.30
2022-08-31T18:40:04.210Z,18.30
2022-08-31T18:42:51.142Z,18.30
2022-08-31T18:45:21.130Z,18.20
2022-08-31T18:48:20.806Z,18.20
2022-08-31T18:50:44.323Z,18.20
2022-08-31T18:53:15.356Z,18.20
2022-08-31T18:55:44.053Z,18.20
2022-08-31T18:58:12.788Z,18.10
2022-08-31T19:00:42.169Z,18.10
2022-08-31T19:03:10.200Z,18.00
2022-08-31T19:05:41.318Z,18.00
2022-08-31T19:08:09.177Z,18.00
2022-08-31T19:10:37.093Z,18.00
2022-08-31T19:13:07.821Z,17.90
2022-08-31T19:15:39.488Z,17.90
2022-08-31T19:18:09.090Z,17.80
2022-08-31T19:20:37.001Z,17.80
2022-08-31T19:23:04.990Z,17.80
2022-08-31T19:25:32.931Z,17.80
2022-08-31T19:28:01.710Z,17.80
2022-08-31T19:30:30.206Z,17.70
2022-08-31T19:32:58.074Z,17.70
2022-08-31T19:35:27.530Z,17.60
2022-08-31T19:37:56.378Z,17.60
2022-08-31T19:40:43.024Z,17.70
2022-08-31T19:46:15.657Z,17.60
2022-08-31T19:48:44.573Z,17.60
2022-08-31T19:51:15.842Z,17.60
2022-08-31T19:53:45.245Z,17.50
2022-08-31T19:56:17.366Z,17.50
2022-08-31T19:58:47.014Z,17.50
2022-08-31T20:01:15.693Z,17.50
2022-08-31T20:03:43.611Z,17.50
2022-08-31T20:06:15.363Z,17.50
2022-08-31T20:08:44.546Z,17.50
2022-08-31T20:11:20.734Z,17.40
2022-08-31T20:13:49.691Z,17.50
2022-08-31T20:16:18.411Z,17.40
2022-08-31T20:18:48.584Z,17.40
2022-08-31T20:21:20.121Z,17.40
2022-08-31T20:23:49.230Z,17.40
2022-08-31T20:26:18.619Z,17.30
2022-08-31T20:28:46.796Z,17.30
2022-08-31T20:31:16.576Z,17.30
2022-08-31T20:33:46.844Z,17.20
2022-08-31T20:36:18.821Z,17.40
2022-08-31T20:38:49.674Z,17.20
2022-08-31T20:41:17.602Z,17.20
2022-08-31T20:43:45.993Z,17.10
2022-08-31T20:46:34.336Z,17.10
2022-08-31T20:49:19.880Z,17.10
2022-08-31T20:51:47.788Z,17.00
2022-08-31T20:54:17.357Z,17.00
2022-08-31T20:56:45.614Z,17.00
2022-08-31T20:59:13.389Z,17.00
2022-08-31T21:01:41.587Z,17.00
2022-08-31T21:04:09.521Z,17.10
2022-08-31T21:06:37.907Z,16.90
2022-08-31T21:09:08.051Z,17.10
2022-08-31T21:11:40.756Z,16.80
2022-08-31T21:14:08.713Z,16.90
2022-08-31T21:16:36.798Z,16.90
2022-08-31T21:19:08.713Z,16.90
2022-08-31T21:21:36.514Z,16.90
2022-08-31T21:24:04.822Z,16.90
2022-08-31T21:26:34.605Z,16.90
2022-08-31T21:29:06.844Z,16.80
2022-08-31T21:31:35.389Z,16.80
2022-08-31T21:34:11.562Z,16.80
2022-08-31T21:36:39.707Z,16.80
2022-08-31T21:39:10.388Z,16.80
2022-08-31T21:41:39.733Z,16.80
2022-08-31T21:44:10.927Z,16.70
2022-08-31T21:46:39.797Z,16.70
2022-08-31T21:49:08.115Z,16.70
2022-08-31T21:51:38.311Z,16.70
2022-08-31T21:54:08.652Z,16.60
2022-08-31T21:56:39.674Z,16.60
2022-08-31T21:59:08.875Z,16.60
2022-08-31T22:01:37.858Z,16.60
2022-08-31T22:04:06.918Z,16.60
2022-08-31T22:06:35.321Z,16.60
2022-08-31T22:09:06.523Z,16.50
2022-08-31T22:11:37.137Z,16.50
2022-08-31T22:14:07.586Z,16.50
2022-08-31T22:16:38.510Z,16.50
2022-08-31T22:19:10.551Z,16.50
2022-08-31T22:21:43.370Z,16.50
2022-08-31T22:24:18.940Z,16.40
2022-08-31T22:26:57.346Z,16.30
2022-08-31T22:29:28.163Z,16.30
2022-08-31T22:32:00.387Z,16.30
2022-08-31T22:34:28.370Z,16.40
2022-08-31T22:36:57.135Z,16.40
2022-08-31T22:39:27.324Z,16.40
2022-08-31T22:41:55.981Z,16.40
2022-08-31T22:44:26.496Z,16.50
2022-08-31T22:46:56.160Z,16.50
2022-08-31T22:49:25.789Z,16.40
2022-08-31T22:51:54.305Z,16.50
2022-08-31T22:54:22.495Z,16.50
2022-08-31T22:56:50.801Z,16.50
2022-08-31T22:59:24.521Z,16.50
2022-08-31T23:01:54.904Z,16.50
2022-08-31T23:04:27.543Z,16.50
2022-08-31T23:06:57.315Z,16.50
2022-08-31T23:09:27.694Z,16.50
2022-08-31T23:11:56.891Z,16.50
2022-08-31T23:14:25.068Z,16.50
2022-08-31T23:16:57.088Z,16.40
2022-08-31T23:19:30.532Z,16.30
2022-08-31T23:21:59.827Z,16.30
2022-08-31T23:24:30.778Z,16.40
2022-08-31T23:27:03.896Z,16.40
2022-08-31T23:29:34.451Z,16.30
2022-08-31T23:32:02.816Z,16.30
2022-08-31T23:34:35.126Z,16.30
2022-08-31T23:37:03.601Z,16.30
2022-08-31T23:39:31.458Z,16.30
2022-08-31T23:41:59.388Z,16.30
2022-08-31T23:44:27.275Z,16.30
2022-08-31T23:46:55.510Z,16.30
2022-08-31T23:49:23.495Z,16.20
2022-08-31T23:51:52.605Z,16.20
2022-08-31T23:54:24.102Z,16.30
2022-08-31T23:56:57.720Z,16.30
2022-08-31T23:59:26.470Z,16.30
